createdAt,value
2018-04-21T00:00:05.449Z,969.94
2018-04-21T00:15:04.641Z,963.38
2018-04-21T00:30:05.054Z,963.49
2018-04-21T00:45:04.881Z,963.59
2018-04-21T01:00:04.644Z,963.54
2018-04-21T01:15:04.732Z,964.22
2018-04-21T01:30:04.811Z,964.33
2018-04-21T01:45:05.509Z,964.44
2018-04-21T02:00:05.083Z,964.9
2018-04-21T02:15:04.769Z,965.69
2018-04-21T02:30:04.573Z,965.34
2018-04-21T02:45:05.363Z,965.31
2018-04-21T03:00:04.896Z,965.69
2018-04-21T03:15:05.189Z,966.02
2018-04-21T03:30:05.269Z,966.42
2018-04-21T03:45:05.342Z,966.51
2018-04-21T04:00:04.795Z,966.45
2018-04-21T04:15:05.541Z,967.35
2018-04-21T04:30:04.688Z,967.11
2018-04-21T04:45:04.805Z,967.49
2018-04-21T05:00:05.362Z,967.7
2018-04-21T05:15:05.623Z,967.51
2018-04-21T05:30:05.418Z,967.35
2018-04-21T05:45:05.523Z,966.89
2018-04-21T06:00:04.575Z,966.53
2018-04-21T06:15:05.239Z,965.91
2018-04-21T06:30:04.990Z,965.64
2018-04-21T06:45:05.080Z,964.25
2018-04-21T07:00:04.879Z,970.62
2018-04-21T07:15:05.616Z,969.31
2018-04-21T07:30:05.691Z,967.36
2018-04-21T07:45:05.281Z,965.74
2018-04-21T08:00:05.298Z,964.78
2018-04-21T08:15:05.072Z,970.6
2018-04-21T08:30:05.300Z,969.19
2018-04-21T08:45:05.539Z,967.64
2018-04-21T09:00:05.389Z,966.34
2018-04-21T09:15:05.155Z,966.18
2018-04-21T09:30:04.919Z,966.23
2018-04-21T09:45:05.722Z,966.4
2018-04-21T10:00:05.773Z,966.45
2018-04-21T10:15:04.894Z,966.81
2018-04-21T10:30:05.136Z,967.67
2018-04-21T10:45:05.436Z,967.17
2018-04-21T11:00:05.284Z,966.92
2018-04-21T11:15:04.778Z,966.81
2018-04-21T11:30:04.531Z,966.01
2018-04-21T11:45:04.988Z,965.84
2018-04-21T12:00:04.489Z,965.48
2018-04-21T12:15:05.083Z,965.1
2018-04-21T12:30:04.886Z,964.74
2018-04-21T12:45:04.893Z,964.63
2018-04-21T13:00:04.953Z,964.52
2018-04-21T13:15:04.530Z,964.13
2018-04-21T13:30:04.821Z,963.55
2018-04-21T13:45:05.290Z,963.13
2018-04-21T14:00:05.298Z,962.61
2018-04-21T14:15:04.754Z,962.91
2018-04-21T14:30:04.435Z,962.58
2018-04-21T14:45:05.058Z,962.25
2018-04-21T15:00:06.204Z,962.14
2018-04-21T15:15:04.789Z,961.94
2018-04-21T15:30:04.525Z,961.81
2018-04-21T15:45:04.651Z,961.42
2018-04-21T16:00:04.731Z,961.28
2018-04-21T16:15:05.316Z,961.06
2018-04-21T16:30:05.103Z,960.95
2018-04-21T16:45:05.196Z,961.45
2018-04-21T17:00:04.933Z,961.86
2018-04-21T17:15:04.491Z,962.41
2018-04-21T17:30:05.316Z,962.91
2018-04-21T17:45:04.842Z,963.41
2018-04-21T18:00:04.791Z,964.1
2018-04-21T18:15:05.118Z,964.57
2018-04-21T18:30:05.328Z,965.15
2018-04-21T18:45:04.779Z,965.46
2018-04-21T19:00:05.368Z,959.87
2018-04-21T19:15:05.005Z,959.76
2018-04-21T19:30:04.690Z,960.3
2018-04-21T19:45:05.275Z,961.21
2018-04-21T20:00:04.719Z,962.14
2018-04-21T20:15:05.189Z,962.39
2018-04-21T20:30:04.961Z,961.98
2018-04-21T20:45:04.486Z,963.1
2018-04-21T21:00:05.000Z,963.6
2018-04-21T21:15:04.480Z,964.2
2018-04-21T21:30:05.158Z,964.26
2018-04-21T21:45:05.129Z,964.89
2018-04-21T22:00:04.649Z,966.4
2018-04-21T22:15:05.083Z,965.3
2018-04-21T22:30:05.276Z,964.97
2018-04-21T22:45:05.255Z,965.13
2018-04-21T23:00:04.808Z,965.27
2018-04-21T23:15:05.229Z,965.77
2018-04-21T23:30:04.893Z,966.04
2018-04-21T23:45:05.336Z,966.2
